sensor_id;sensor_type;location;lat;lon;timestamp;P1;durP1;ratioP1;P2;durP2;ratioP2
39898;SDS011;25571;47.876;10.642;2024-01-06T00:01:47;0.40;;;0.30;;
39898;SDS011;25571;47.876;10.642;2024-01-06T00:04:12;0.40;;;0.40;;
39898;SDS011;25571;47.876;10.642;2024-01-06T00:06:38;0.60;;;0.50;;
39898;SDS011;25571;47.876;10.642;2024-01-06T00:09:04;0.50;;;0.50;;
39898;SDS011;25571;47.876;10.642;2024-01-06T00:11:30;0.47;;;0.40;;
39898;SDS011;25571;47.876;10.642;2024-01-06T00:13:55;0.75;;;0.40;;
39898;SDS011;25571;47.876;10.642;2024-01-06T00:16:21;0.75;;;0.60;;
39898;SDS011;25571;47.876;10.642;2024-01-06T00:18:47;0.88;;;0.70;;
39898;SDS011;25571;47.876;10.642;2024-01-06T00:21:13;1.00;;;0.73;;
39898;SDS011;25571;47.876;10.642;2024-01-06T00:23:41;0.65;;;0.50;;
39898;SDS011;25571;47.876;10.642;2024-01-06T00:26:07;0.45;;;0.40;;
39898;SDS011;25571;47.876;10.642;2024-01-06T00:28:34;0.52;;;0.40;;
39898;SDS011;25571;47.876;10.642;2024-01-06T00:31:00;0.50;;;0.50;;
39898;SDS011;25571;47.876;10.642;2024-01-06T00:33:25;0.40;;;0.40;;
39898;SDS011;25571;47.876;10.642;2024-01-06T00:35:51;0.40;;;0.40;;
39898;SDS011;25571;47.876;10.642;2024-01-06T00:38:16;0.32;;;0.32;;
39898;SDS011;25571;47.876;10.642;2024-01-06T00:40:42;0.47;;;0.45;;
39898;SDS011;25571;47.876;10.642;2024-01-06T00:43:08;1.83;;;0.60;;
39898;SDS011;25571;47.876;10.642;2024-01-06T00:45:33;0.50;;;0.50;;
39898;SDS011;25571;47.876;10.642;2024-01-06T00:47:59;0.70;;;0.60;;
39898;SDS011;25571;47.876;10.642;2024-01-06T00:50:24;0.68;;;0.60;;
39898;SDS011;25571;47.876;10.642;2024-01-06T00:52:50;0.77;;;0.77;;
39898;SDS011;25571;47.876;10.642;2024-01-06T00:55:17;1.30;;;0.60;;
39898;SDS011;25571;47.876;10.642;2024-01-06T00:57:43;0.80;;;0.60;;
39898;SDS011;25571;47.876;10.642;2024-01-06T01:00:09;0.63;;;0.57;;
39898;SDS011;25571;47.876;10.642;2024-01-06T01:02:35;1.02;;;0.82;;
39898;SDS011;25571;47.876;10.642;2024-01-06T01:05:01;0.63;;;0.60;;
39898;SDS011;25571;47.876;10.642;2024-01-06T01:07:27;0.60;;;0.60;;
39898;SDS011;25571;47.876;10.642;2024-01-06T01:09:52;0.50;;;0.50;;
39898;SDS011;25571;47.876;10.642;2024-01-06T01:12:18;1.23;;;0.90;;
39898;SDS011;25571;47.876;10.642;2024-01-06T01:14:43;0.95;;;0.80;;
39898;SDS011;25571;47.876;10.642;2024-01-06T01:17:09;0.70;;;0.70;;
39898;SDS011;25571;47.876;10.642;2024-01-06T01:19:35;1.42;;;0.70;;
39898;SDS011;25571;47.876;10.642;2024-01-06T01:22:00;0.90;;;0.80;;
39898;SDS011;25571;47.876;10.642;2024-01-06T01:24:26;1.20;;;0.80;;
39898;SDS011;25571;47.876;10.642;2024-01-06T01:26:51;0.80;;;0.80;;
39898;SDS011;25571;47.876;10.642;2024-01-06T01:29:17;1.05;;;0.90;;
39898;SDS011;25571;47.876;10.642;2024-01-06T01:31:45;1.20;;;0.80;;
39898;SDS011;25571;47.876;10.642;2024-01-06T01:34:11;0.73;;;0.73;;
39898;SDS011;25571;47.876;10.642;2024-01-06T01:36:36;0.80;;;0.80;;
39898;SDS011;25571;47.876;10.642;2024-01-06T01:39:02;1.13;;;1.02;;
39898;SDS011;25571;47.876;10.642;2024-01-06T01:41:28;0.93;;;0.80;;
39898;SDS011;25571;47.876;10.642;2024-01-06T01:43:53;1.08;;;0.88;;
39898;SDS011;25571;47.876;10.642;2024-01-06T01:46:26;0.93;;;0.90;;
39898;SDS011;25571;47.876;10.642;2024-01-06T01:48:53;1.45;;;1.15;;
39898;SDS011;25571;47.876;10.642;2024-01-06T01:51:20;1.33;;;0.90;;
39898;SDS011;25571;47.876;10.642;2024-01-06T01:53:46;1.50;;;1.15;;
39898;SDS011;25571;47.876;10.642;2024-01-06T01:56:12;1.25;;;1.15;;
39898;SDS011;25571;47.876;10.642;2024-01-06T01:58:38;1.33;;;1.20;;
39898;SDS011;25571;47.876;10.642;2024-01-06T02:01:05;1.45;;;1.30;;
39898;SDS011;25571;47.876;10.642;2024-01-06T02:03:32;1.67;;;1.15;;
39898;SDS011;25571;47.876;10.642;2024-01-06T02:05:58;1.20;;;1.10;;
39898;SDS011;25571;47.876;10.642;2024-01-06T02:08:24;1.60;;;1.40;;
39898;SDS011;25571;47.876;10.642;2024-01-06T02:10:49;1.40;;;1.10;;
39898;SDS011;25571;47.876;10.642;2024-01-06T02:13:15;1.10;;;1.10;;
39898;SDS011;25571;47.876;10.642;2024-01-06T02:15:40;1.70;;;1.38;;
39898;SDS011;25571;47.876;10.642;2024-01-06T02:18:06;1.42;;;1.33;;
39898;SDS011;25571;47.876;10.642;2024-01-06T02:20:32;1.40;;;1.30;;
39898;SDS011;25571;47.876;10.642;2024-01-06T02:22:58;1.50;;;1.30;;
39898;SDS011;25571;47.876;10.642;2024-01-06T02:25:25;1.65;;;1.40;;
39898;SDS011;25571;47.876;10.642;2024-01-06T02:27:51;1.33;;;1.23;;
39898;SDS011;25571;47.876;10.642;2024-01-06T02:30:17;2.03;;;1.50;;
39898;SDS011;25571;47.876;10.642;2024-01-06T02:32:42;1.17;;;1.10;;
39898;SDS011;25571;47.876;10.642;2024-01-06T02:35:08;2.30;;;1.23;;
39898;SDS011;25571;47.876;10.642;2024-01-06T02:37:33;1.60;;;1.50;;
39898;SDS011;25571;47.876;10.642;2024-01-06T02:39:59;1.70;;;1.60;;
39898;SDS011;25571;47.876;10.642;2024-01-06T02:42:24;1.52;;;1.27;;
39898;SDS011;25571;47.876;10.642;2024-01-06T02:44:50;1.50;;;1.40;;
39898;SDS011;25571;47.876;10.642;2024-01-06T02:47:16;1.92;;;1.77;;
39898;SDS011;25571;47.876;10.642;2024-01-06T02:49:42;2.58;;;1.45;;
39898;SDS011;25571;47.876;10.642;2024-01-06T02:52:08;2.08;;;1.88;;
39898;SDS011;25571;47.876;10.642;2024-01-06T02:54:33;2.05;;;1.58;;
39898;SDS011;25571;47.876;10.642;2024-01-06T02:56:59;1.45;;;1.35;;
39898;SDS011;25571;47.876;10.642;2024-01-06T02:59:24;1.58;;;1.48;;
39898;SDS011;25571;47.876;10.642;2024-01-06T03:01:50;1.63;;;1.52;;
39898;SDS011;25571;47.876;10.642;2024-01-06T03:04:16;2.03;;;1.67;;
39898;SDS011;25571;47.876;10.642;2024-01-06T03:06:42;1.67;;;1.58;;
39898;SDS011;25571;47.876;10.642;2024-01-06T03:09:08;1.70;;;1.60;;
39898;SDS011;25571;47.876;10.642;2024-01-06T03:11:33;2.20;;;1.95;;
39898;SDS011;25571;47.876;10.642;2024-01-06T03:13:59;1.80;;;1.70;;
39898;SDS011;25571;47.876;10.642;2024-01-06T03:16:24;1.40;;;1.30;;
39898;SDS011;25571;47.876;10.642;2024-01-06T03:18:50;1.45;;;1.30;;
39898;SDS011;25571;47.876;10.642;2024-01-06T03:21:19;1.67;;;1.58;;
39898;SDS011;25571;47.876;10.642;2024-01-06T03:23:45;1.90;;;1.80;;
39898;SDS011;25571;47.876;10.642;2024-01-06T03:26:11;1.45;;;1.35;;
39898;SDS011;25571;47.876;10.642;2024-01-06T03:28:37;1.52;;;1.42;;
39898;SDS011;25571;47.876;10.642;2024-01-06T03:31:02;1.52;;;1.42;;
39898;SDS011;25571;47.876;10.642;2024-01-06T03:33:28;1.63;;;1.50;;
39898;SDS011;25571;47.876;10.642;2024-01-06T03:35:54;1.95;;;1.30;;
39898;SDS011;25571;47.876;10.642;2024-01-06T03:38:19;1.52;;;1.42;;
39898;SDS011;25571;47.876;10.642;2024-01-06T03:40:45;2.47;;;1.80;;
39898;SDS011;25571;47.876;10.642;2024-01-06T03:43:10;1.52;;;1.42;;
39898;SDS011;25571;47.876;10.642;2024-01-06T03:45:36;1.70;;;1.60;;
39898;SDS011;25571;47.876;10.642;2024-01-06T03:48:01;2.33;;;1.45;;
39898;SDS011;25571;47.876;10.642;2024-01-06T03:50:27;1.30;;;1.20;;
39898;SDS011;25571;47.876;10.642;2024-01-06T03:52:53;1.83;;;1.73;;
39898;SDS011;25571;47.876;10.642;2024-01-06T03:55:18;1.60;;;1.50;;
39898;SDS011;25571;47.876;10.642;2024-01-06T03:57:44;1.70;;;1.50;;
39898;SDS011;25571;47.876;10.642;2024-01-06T04:00:09;1.55;;;1.45;;
39898;SDS011;25571;47.876;10.642;2024-01-06T04:02:35;1.58;;;1.48;;
39898;SDS011;25571;47.876;10.642;2024-01-06T04:05:01;1.75;;;1.65;;
39898;SDS011;25571;47.876;10.642;2024-01-06T04:07:26;2.05;;;1.90;;
39898;SDS011;25571;47.876;10.642;2024-01-06T04:09:52;1.60;;;1.50;;
39898;SDS011;25571;47.876;10.642;2024-01-06T04:12:17;1.50;;;1.40;;
39898;SDS011;25571;47.876;10.642;2024-01-06T04:14:43;1.40;;;1.30;;
39898;SDS011;25571;47.876;10.642;2024-01-06T04:17:08;2.55;;;1.73;;
39898;SDS011;25571;47.876;10.642;2024-01-06T04:19:34;1.60;;;1.45;;
39898;SDS011;25571;47.876;10.642;2024-01-06T04:22:00;1.38;;;1.27;;
39898;SDS011;25571;47.876;10.642;2024-01-06T04:24:25;1.83;;;1.70;;
39898;SDS011;25571;47.876;10.642;2024-01-06T04:26:51;1.70;;;1.60;;
39898;SDS011;25571;47.876;10.642;2024-01-06T04:29:16;1.70;;;1.60;;
39898;SDS011;25571;47.876;10.642;2024-01-06T04:31:42;2.75;;;1.80;;
39898;SDS011;25571;47.876;10.642;2024-01-06T04:34:08;2.40;;;1.70;;
39898;SDS011;25571;47.876;10.642;2024-01-06T04:36:33;1.58;;;1.48;;
39898;SDS011;25571;47.876;10.642;2024-01-06T04:38:59;1.67;;;1.58;;
39898;SDS011;25571;47.876;10.642;2024-01-06T04:41:24;1.80;;;1.70;;
39898;SDS011;25571;47.876;10.642;2024-01-06T04:43:50;2.00;;;1.70;;
39898;SDS011;25571;47.876;10.642;2024-01-06T04:46:15;1.95;;;1.65;;
39898;SDS011;25571;47.876;10.642;2024-01-06T04:48:41;2.03;;;1.80;;
39898;SDS011;25571;47.876;10.642;2024-01-06T04:51:08;2.33;;;2.13;;
39898;SDS011;25571;47.876;10.642;2024-01-06T04:53:35;2.47;;;2.28;;
39898;SDS011;25571;47.876;10.642;2024-01-06T04:56:01;2.25;;;2.03;;
39898;SDS011;25571;47.876;10.642;2024-01-06T04:58:27;2.30;;;2.10;;
39898;SDS011;25571;47.876;10.642;2024-01-06T05:00:52;2.25;;;2.05;;
39898;SDS011;25571;47.876;10.642;2024-01-06T05:03:18;2.80;;;2.50;;
39898;SDS011;25571;47.876;10.642;2024-01-06T05:05:43;3.08;;;2.45;;
39898;SDS011;25571;47.876;10.642;2024-01-06T05:08:09;2.58;;;2.38;;
39898;SDS011;25571;47.876;10.642;2024-01-06T05:10:35;2.90;;;2.58;;
39898;SDS011;25571;47.876;10.642;2024-01-06T05:13:00;2.97;;;2.53;;
39898;SDS011;25571;47.876;10.642;2024-01-06T05:15:26;2.90;;;2.50;;
39898;SDS011;25571;47.876;10.642;2024-01-06T05:17:51;2.65;;;2.45;;
39898;SDS011;25571;47.876;10.642;2024-01-06T05:20:17;2.95;;;2.53;;
39898;SDS011;25571;47.876;10.642;2024-01-06T05:22:43;3.15;;;2.85;;
39898;SDS011;25571;47.876;10.642;2024-01-06T05:25:08;3.08;;;2.83;;
39898;SDS011;25571;47.876;10.642;2024-01-06T05:27:34;3.05;;;2.75;;
39898;SDS011;25571;47.876;10.642;2024-01-06T05:30:00;3.47;;;3.15;;
39898;SDS011;25571;47.876;10.642;2024-01-06T05:32:26;3.30;;;2.97;;
39898;SDS011;25571;47.876;10.642;2024-01-06T05:34:51;3.63;;;3.25;;
39898;SDS011;25571;47.876;10.642;2024-01-06T05:37:17;3.30;;;3.00;;
39898;SDS011;25571;47.876;10.642;2024-01-06T05:39:42;2.90;;;2.63;;
39898;SDS011;25571;47.876;10.642;2024-01-06T05:42:09;3.20;;;2.90;;
39898;SDS011;25571;47.876;10.642;2024-01-06T05:44:36;2.88;;;2.60;;
39898;SDS011;25571;47.876;10.642;2024-01-06T05:47:02;2.75;;;2.42;;
39898;SDS011;25571;47.876;10.642;2024-01-06T05:49:28;2.60;;;2.40;;
39898;SDS011;25571;47.876;10.642;2024-01-06T05:51:53;2.75;;;2.55;;
39898;SDS011;25571;47.876;10.642;2024-01-06T05:54:19;3.40;;;2.88;;
39898;SDS011;25571;47.876;10.642;2024-01-06T05:56:45;2.55;;;2.22;;
39898;SDS011;25571;47.876;10.642;2024-01-06T05:59:10;3.38;;;3.00;;
39898;SDS011;25571;47.876;10.642;2024-01-06T06:01:36;4.00;;;3.70;;
39898;SDS011;25571;47.876;10.642;2024-01-06T06:04:01;3.88;;;3.55;;
39898;SDS011;25571;47.876;10.642;2024-01-06T06:06:27;3.20;;;2.90;;
39898;SDS011;25571;47.876;10.642;2024-01-06T06:08:52;3.63;;;2.92;;
39898;SDS011;25571;47.876;10.642;2024-01-06T06:11:18;3.03;;;2.72;;
39898;SDS011;25571;47.876;10.642;2024-01-06T06:13:43;3.08;;;2.63;;
39898;SDS011;25571;47.876;10.642;2024-01-06T06:16:09;3.42;;;2.90;;
39898;SDS011;25571;47.876;10.642;2024-01-06T06:18:37;3.10;;;2.50;;
39898;SDS011;25571;47.876;10.642;2024-01-06T06:21:03;2.90;;;2.60;;
39898;SDS011;25571;47.876;10.642;2024-01-06T06:23:30;4.30;;;3.20;;
39898;SDS011;25571;47.876;10.642;2024-01-06T06:25:55;3.97;;;2.78;;
39898;SDS011;25571;47.876;10.642;2024-01-06T06:28:21;3.17;;;2.97;;
39898;SDS011;25571;47.876;10.642;2024-01-06T06:30:47;3.25;;;2.95;;
39898;SDS011;25571;47.876;10.642;2024-01-06T06:33:12;3.30;;;3.00;;
39898;SDS011;25571;47.876;10.642;2024-01-06T06:35:38;3.20;;;2.58;;
39898;SDS011;25571;47.876;10.642;2024-01-06T06:38:03;2.53;;;2.33;;
39898;SDS011;25571;47.876;10.642;2024-01-06T06:40:29;2.30;;;2.03;;
39898;SDS011;25571;47.876;10.642;2024-01-06T06:42:55;2.38;;;2.17;;
39898;SDS011;25571;47.876;10.642;2024-01-06T06:45:20;2.30;;;2.10;;
39898;SDS011;25571;47.876;10.642;2024-01-06T06:47:48;2.25;;;2.05;;
39898;SDS011;25571;47.876;10.642;2024-01-06T06:50:15;2.20;;;2.00;;
39898;SDS011;25571;47.876;10.642;2024-01-06T06:52:41;2.30;;;2.10;;
39898;SDS011;25571;47.876;10.642;2024-01-06T06:55:07;1.90;;;1.70;;
39898;SDS011;25571;47.876;10.642;2024-01-06T06:57:33;2.58;;;2.35;;
39898;SDS011;25571;47.876;10.642;2024-01-06T06:59:59;3.22;;;2.92;;
39898;SDS011;25571;47.876;10.642;2024-01-06T07:02:25;3.53;;;3.22;;
39898;SDS011;25571;47.876;10.642;2024-01-06T07:04:51;4.93;;;3.10;;
39898;SDS011;25571;47.876;10.642;2024-01-06T07:07:16;3.47;;;3.03;;
39898;SDS011;25571;47.876;10.642;2024-01-06T07:09:42;2.30;;;2.08;;
39898;SDS011;25571;47.876;10.642;2024-01-06T07:12:08;2.10;;;1.90;;
39898;SDS011;25571;47.876;10.642;2024-01-06T07:14:33;1.50;;;1.40;;
39898;SDS011;25571;47.876;10.642;2024-01-06T07:16:59;1.73;;;1.60;;
39898;SDS011;25571;47.876;10.642;2024-01-06T07:19:25;1.73;;;1.60;;
39898;SDS011;25571;47.876;10.642;2024-01-06T07:21:50;1.88;;;1.67;;
39898;SDS011;25571;47.876;10.642;2024-01-06T07:24:16;1.65;;;1.55;;
39898;SDS011;25571;47.876;10.642;2024-01-06T07:26:41;1.90;;;1.80;;
39898;SDS011;25571;47.876;10.642;2024-01-06T07:29:07;1.70;;;1.60;;
39898;SDS011;25571;47.876;10.642;2024-01-06T07:31:33;1.52;;;1.42;;
39898;SDS011;25571;47.876;10.642;2024-01-06T07:33:59;1.75;;;1.65;;
39898;SDS011;25571;47.876;10.642;2024-01-06T07:36:24;2.05;;;1.95;;
39898;SDS011;25571;47.876;10.642;2024-01-06T07:38:50;2.33;;;2.10;;
39898;SDS011;25571;47.876;10.642;2024-01-06T07:41:17;2.38;;;2.17;;
39898;SDS011;25571;47.876;10.642;2024-01-06T07:43:43;1.83;;;1.73;;
39898;SDS011;25571;47.876;10.642;2024-01-06T07:46:08;1.80;;;1.70;;
39898;SDS011;25571;47.876;10.642;2024-01-06T07:48:34;2.00;;;1.80;;
39898;SDS011;25571;47.876;10.642;2024-01-06T07:51:00;2.13;;;1.95;;
39898;SDS011;25571;47.876;10.642;2024-01-06T07:53:26;2.33;;;2.13;;
39898;SDS011;25571;47.876;10.642;2024-01-06T07:55:52;3.20;;;2.90;;
39898;SDS011;25571;47.876;10.642;2024-01-06T07:58:18;3.15;;;2.85;;
39898;SDS011;25571;47.876;10.642;2024-01-06T08:00:43;3.50;;;3.20;;
39898;SDS011;25571;47.876;10.642;2024-01-06T08:03:09;3.65;;;3.35;;
39898;SDS011;25571;47.876;10.642;2024-01-06T08:05:36;4.10;;;3.70;;
39898;SDS011;25571;47.876;10.642;2024-01-06T08:08:03;5.55;;;4.45;;
39898;SDS011;25571;47.876;10.642;2024-01-06T08:10:29;6.57;;;5.93;;
39898;SDS011;25571;47.876;10.642;2024-01-06T08:12:55;7.65;;;6.30;;
39898;SDS011;25571;47.876;10.642;2024-01-06T08:15:20;6.68;;;5.50;;
39898;SDS011;25571;47.876;10.642;2024-01-06T08:17:46;7.57;;;6.47;;
39898;SDS011;25571;47.876;10.642;2024-01-06T08:20:11;6.43;;;5.28;;
39898;SDS011;25571;47.876;10.642;2024-01-06T08:22:37;4.82;;;4.13;;
39898;SDS011;25571;47.876;10.642;2024-01-06T08:25:03;5.10;;;4.22;;
39898;SDS011;25571;47.876;10.642;2024-01-06T08:27:31;4.18;;;3.78;;
39898;SDS011;25571;47.876;10.642;2024-01-06T08:29:57;5.47;;;4.70;;
39898;SDS011;25571;47.876;10.642;2024-01-06T08:32:22;6.22;;;4.97;;
39898;SDS011;25571;47.876;10.642;2024-01-06T08:34:48;7.25;;;5.70;;
39898;SDS011;25571;47.876;10.642;2024-01-06T08:37:14;5.47;;;4.70;;
39898;SDS011;25571;47.876;10.642;2024-01-06T08:39:39;6.10;;;5.03;;
39898;SDS011;25571;47.876;10.642;2024-01-06T08:42:06;4.78;;;4.28;;
39898;SDS011;25571;47.876;10.642;2024-01-06T08:44:31;8.85;;;4.80;;
39898;SDS011;25571;47.876;10.642;2024-01-06T08:46:57;4.82;;;4.10;;
39898;SDS011;25571;47.876;10.642;2024-01-06T08:49:23;6.68;;;4.80;;
39898;SDS011;25571;47.876;10.642;2024-01-06T08:51:49;4.80;;;4.38;;
39898;SDS011;25571;47.876;10.642;2024-01-06T08:54:15;4.00;;;3.60;;
39898;SDS011;25571;47.876;10.642;2024-01-06T08:56:41;4.60;;;3.95;;
39898;SDS011;25571;47.876;10.642;2024-01-06T08:59:06;4.55;;;3.75;;
39898;SDS011;25571;47.876;10.642;2024-01-06T09:01:32;5.50;;;4.25;;
39898;SDS011;25571;47.876;10.642;2024-01-06T09:04:00;5.10;;;4.18;;
39898;SDS011;25571;47.876;10.642;2024-01-06T09:06:26;7.13;;;5.20;;
39898;SDS011;25571;47.876;10.642;2024-01-06T09:08:52;5.72;;;5.10;;
39898;SDS011;25571;47.876;10.642;2024-01-06T09:11:17;7.28;;;5.65;;
39898;SDS011;25571;47.876;10.642;2024-01-06T09:13:43;6.78;;;5.32;;
39898;SDS011;25571;47.876;10.642;2024-01-06T09:16:09;8.88;;;6.22;;
39898;SDS011;25571;47.876;10.642;2024-01-06T09:18:35;8.18;;;6.15;;
39898;SDS011;25571;47.876;10.642;2024-01-06T09:21:01;9.13;;;6.78;;
39898;SDS011;25571;47.876;10.642;2024-01-06T09:23:28;8.38;;;6.65;;
39898;SDS011;25571;47.876;10.642;2024-01-06T09:25:53;8.48;;;7.10;;
39898;SDS011;25571;47.876;10.642;2024-01-06T09:28:19;8.73;;;6.05;;
39898;SDS011;25571;47.876;10.642;2024-01-06T09:30:46;7.72;;;5.85;;
39898;SDS011;25571;47.876;10.642;2024-01-06T09:33:12;8.77;;;6.25;;
39898;SDS011;25571;47.876;10.642;2024-01-06T09:35:40;8.65;;;7.28;;
39898;SDS011;25571;47.876;10.642;2024-01-06T09:38:06;9.55;;;6.90;;
39898;SDS011;25571;47.876;10.642;2024-01-06T09:40:32;9.85;;;8.25;;
39898;SDS011;25571;47.876;10.642;2024-01-06T09:43:00;11.90;;;7.70;;
39898;SDS011;25571;47.876;10.642;2024-01-06T09:45:27;9.23;;;7.07;;
39898;SDS011;25571;47.876;10.642;2024-01-06T09:47:53;10.15;;;7.47;;
39898;SDS011;25571;47.876;10.642;2024-01-06T09:50:20;8.10;;;6.60;;
39898;SDS011;25571;47.876;10.642;2024-01-06T09:52:47;8.55;;;6.57;;
39898;SDS011;25571;47.876;10.642;2024-01-06T09:55:24;8.30;;;6.70;;
39898;SDS011;25571;47.876;10.642;2024-01-06T09:57:54;8.40;;;6.97;;
39898;SDS011;25571;47.876;10.642;2024-01-06T10:00:20;8.40;;;6.63;;
39898;SDS011;25571;47.876;10.642;2024-01-06T10:02:47;7.10;;;5.93;;
39898;SDS011;25571;47.876;10.642;2024-01-06T10:05:19;6.68;;;5.65;;
39898;SDS011;25571;47.876;10.642;2024-01-06T10:07:44;6.22;;;5.25;;
39898;SDS011;25571;47.876;10.642;2024-01-06T10:10:10;6.68;;;5.43;;
39898;SDS011;25571;47.876;10.642;2024-01-06T10:12:39;6.65;;;5.25;;
39898;SDS011;25571;47.876;10.642;2024-01-06T10:15:06;5.15;;;4.63;;
39898;SDS011;25571;47.876;10.642;2024-01-06T10:17:33;5.22;;;4.60;;
39898;SDS011;25571;47.876;10.642;2024-01-06T10:20:01;5.22;;;4.70;;
39898;SDS011;25571;47.876;10.642;2024-01-06T10:22:28;5.63;;;5.07;;
39898;SDS011;25571;47.876;10.642;2024-01-06T10:24:54;5.88;;;5.28;;
39898;SDS011;25571;47.876;10.642;2024-01-06T10:27:20;6.22;;;5.63;;
39898;SDS011;25571;47.876;10.642;2024-01-06T10:29:47;8.45;;;5.47;;
39898;SDS011;25571;47.876;10.642;2024-01-06T10:32:12;6.65;;;5.22;;
39898;SDS011;25571;47.876;10.642;2024-01-06T10:34:38;6.95;;;6.25;;
39898;SDS011;25571;47.876;10.642;2024-01-06T10:37:04;6.90;;;6.13;;
39898;SDS011;25571;47.876;10.642;2024-01-06T10:39:31;6.65;;;5.75;;
39898;SDS011;25571;47.876;10.642;2024-01-06T10:41:56;5.65;;;5.13;;
39898;SDS011;25571;47.876;10.642;2024-01-06T10:44:23;6.25;;;5.57;;
39898;SDS011;25571;47.876;10.642;2024-01-06T10:46:49;6.78;;;5.85;;
39898;SDS011;25571;47.876;10.642;2024-01-06T10:49:15;7.55;;;6.50;;
39898;SDS011;25571;47.876;10.642;2024-01-06T10:51:46;7.97;;;6.22;;
39898;SDS011;25571;47.876;10.642;2024-01-06T10:54:13;10.90;;;7.85;;
39898;SDS011;25571;47.876;10.642;2024-01-06T10:56:41;9.48;;;6.25;;
39898;SDS011;25571;47.876;10.642;2024-01-06T10:59:08;7.90;;;5.27;;
39898;SDS011;25571;47.876;10.642;2024-01-06T11:01:36;6.88;;;5.00;;
39898;SDS011;25571;47.876;10.642;2024-01-06T11:04:03;7.18;;;4.88;;
39898;SDS011;25571;47.876;10.642;2024-01-06T11:06:32;6.80;;;5.22;;
39898;SDS011;25571;47.876;10.642;2024-01-06T11:11:51;8.10;;;6.18;;
39898;SDS011;25571;47.876;10.642;2024-01-06T11:14:25;7.70;;;6.82;;
39898;SDS011;25571;47.876;10.642;2024-01-06T11:16:53;7.05;;;5.75;;
39898;SDS011;25571;47.876;10.642;2024-01-06T11:25:04;7.50;;;5.95;;
39898;SDS011;25571;47.876;10.642;2024-01-06T11:27:32;6.90;;;6.05;;
39898;SDS011;25571;47.876;10.642;2024-01-06T11:29:58;8.15;;;6.88;;
39898;SDS011;25571;47.876;10.642;2024-01-06T11:32:26;7.38;;;6.15;;
39898;SDS011;25571;47.876;10.642;2024-01-06T11:34:54;8.88;;;6.63;;
39898;SDS011;25571;47.876;10.642;2024-01-06T11:40:16;7.47;;;6.68;;
39898;SDS011;25571;47.876;10.642;2024-01-06T11:42:56;6.90;;;5.88;;
39898;SDS011;25571;47.876;10.642;2024-01-06T11:45:30;6.95;;;6.25;;
39898;SDS011;25571;47.876;10.642;2024-01-06T11:47:58;7.82;;;6.03;;
39898;SDS011;25571;47.876;10.642;2024-01-06T11:50:25;8.90;;;7.07;;
39898;SDS011;25571;47.876;10.642;2024-01-06T11:52:52;7.75;;;6.63;;
39898;SDS011;25571;47.876;10.642;2024-01-06T11:55:18;7.20;;;5.82;;
39898;SDS011;25571;47.876;10.642;2024-01-06T11:57:44;8.20;;;6.25;;
39898;SDS011;25571;47.876;10.642;2024-01-06T12:00:10;8.60;;;7.13;;
39898;SDS011;25571;47.876;10.642;2024-01-06T12:02:38;11.45;;;8.68;;
39898;SDS011;25571;47.876;10.642;2024-01-06T12:05:04;10.00;;;7.50;;
39898;SDS011;25571;47.876;10.642;2024-01-06T12:07:30;9.90;;;7.75;;
39898;SDS011;25571;47.876;10.642;2024-01-06T12:10:03;9.95;;;7.55;;
39898;SDS011;25571;47.876;10.642;2024-01-06T12:12:29;9.73;;;7.07;;
39898;SDS011;25571;47.876;10.642;2024-01-06T12:14:55;15.18;;;8.20;;
39898;SDS011;25571;47.876;10.642;2024-01-06T12:17:21;17.05;;;9.05;;
39898;SDS011;25571;47.876;10.642;2024-01-06T12:19:47;9.48;;;5.93;;
39898;SDS011;25571;47.876;10.642;2024-01-06T12:22:14;9.00;;;5.70;;
39898;SDS011;25571;47.876;10.642;2024-01-06T12:24:40;9.23;;;6.53;;
39898;SDS011;25571;47.876;10.642;2024-01-06T12:27:10;7.72;;;6.07;;
39898;SDS011;25571;47.876;10.642;2024-01-06T12:29:42;7.05;;;4.95;;
39898;SDS011;25571;47.876;10.642;2024-01-06T12:32:08;5.93;;;5.25;;
39898;SDS011;25571;47.876;10.642;2024-01-06T12:34:34;7.60;;;4.78;;
39898;SDS011;25571;47.876;10.642;2024-01-06T12:37:01;6.72;;;4.82;;
39898;SDS011;25571;47.876;10.642;2024-01-06T12:39:27;7.15;;;5.70;;
39898;SDS011;25571;47.876;10.642;2024-01-06T12:41:54;8.48;;;6.10;;
39898;SDS011;25571;47.876;10.642;2024-01-06T12:44:20;9.07;;;6.15;;
39898;SDS011;25571;47.876;10.642;2024-01-06T12:46:46;6.35;;;5.53;;
39898;SDS011;25571;47.876;10.642;2024-01-06T12:49:13;7.43;;;5.30;;
39898;SDS011;25571;47.876;10.642;2024-01-06T12:51:39;5.53;;;4.57;;
39898;SDS011;25571;47.876;10.642;2024-01-06T12:54:04;4.95;;;4.32;;
39898;SDS011;25571;47.876;10.642;2024-01-06T12:56:30;6.13;;;4.80;;
39898;SDS011;25571;47.876;10.642;2024-01-06T12:58:56;6.53;;;5.28;;
39898;SDS011;25571;47.876;10.642;2024-01-06T13:01:21;8.73;;;6.30;;
39898;SDS011;25571;47.876;10.642;2024-01-06T13:03:47;7.82;;;6.15;;
39898;SDS011;25571;47.876;10.642;2024-01-06T13:06:13;7.47;;;5.82;;
39898;SDS011;25571;47.876;10.642;2024-01-06T13:08:40;7.60;;;5.43;;
39898;SDS011;25571;47.876;10.642;2024-01-06T13:11:06;7.15;;;5.85;;
39898;SDS011;25571;47.876;10.642;2024-01-06T13:13:32;7.20;;;6.10;;
39898;SDS011;25571;47.876;10.642;2024-01-06T13:15:58;6.88;;;6.03;;
39898;SDS011;25571;47.876;10.642;2024-01-06T13:18:24;7.03;;;5.47;;
39898;SDS011;25571;47.876;10.642;2024-01-06T13:20:50;5.68;;;5.10;;
39898;SDS011;25571;47.876;10.642;2024-01-06T13:23:15;6.63;;;5.43;;
39898;SDS011;25571;47.876;10.642;2024-01-06T13:25:41;9.73;;;6.72;;
39898;SDS011;25571;47.876;10.642;2024-01-06T13:28:07;8.45;;;6.65;;
39898;SDS011;25571;47.876;10.642;2024-01-06T13:30:33;8.93;;;5.57;;
39898;SDS011;25571;47.876;10.642;2024-01-06T13:32:58;6.78;;;5.30;;
39898;SDS011;25571;47.876;10.642;2024-01-06T13:35:25;6.50;;;5.30;;
39898;SDS011;25571;47.876;10.642;2024-01-06T13:37:51;7.32;;;5.57;;
39898;SDS011;25571;47.876;10.642;2024-01-06T13:40:17;7.15;;;5.95;;
39898;SDS011;25571;47.876;10.642;2024-01-06T13:42:47;7.90;;;6.55;;
39898;SDS011;25571;47.876;10.642;2024-01-06T13:45:16;9.27;;;7.30;;
39898;SDS011;25571;47.876;10.642;2024-01-06T13:47:42;9.52;;;7.78;;
39898;SDS011;25571;47.876;10.642;2024-01-06T13:50:10;9.90;;;7.20;;
39898;SDS011;25571;47.876;10.642;2024-01-06T13:52:37;11.23;;;7.75;;
39898;SDS011;25571;47.876;10.642;2024-01-06T13:55:03;14.20;;;9.95;;
39898;SDS011;25571;47.876;10.642;2024-01-06T13:57:29;16.10;;;10.40;;
39898;SDS011;25571;47.876;10.642;2024-01-06T13:59:55;17.08;;;10.32;;
39898;SDS011;25571;47.876;10.642;2024-01-06T14:02:22;16.83;;;10.30;;
39898;SDS011;25571;47.876;10.642;2024-01-06T14:04:48;13.25;;;9.38;;
39898;SDS011;25571;47.876;10.642;2024-01-06T14:07:14;12.43;;;9.55;;
39898;SDS011;25571;47.876;10.642;2024-01-06T14:09:40;12.75;;;8.93;;
39898;SDS011;25571;47.876;10.642;2024-01-06T14:12:06;10.25;;;8.38;;
39898;SDS011;25571;47.876;10.642;2024-01-06T14:14:32;10.23;;;7.70;;
39898;SDS011;25571;47.876;10.642;2024-01-06T14:16:58;10.98;;;7.90;;
39898;SDS011;25571;47.876;10.642;2024-01-06T14:19:24;11.63;;;8.02;;
39898;SDS011;25571;47.876;10.642;2024-01-06T14:21:50;9.52;;;6.85;;
39898;SDS011;25571;47.876;10.642;2024-01-06T14:24:16;10.23;;;7.40;;
39898;SDS011;25571;47.876;10.642;2024-01-06T14:26:48;9.00;;;7.65;;
39898;SDS011;25571;47.876;10.642;2024-01-06T14:29:15;8.27;;;6.55;;
39898;SDS011;25571;47.876;10.642;2024-01-06T14:31:42;7.38;;;6.13;;
39898;SDS011;25571;47.876;10.642;2024-01-06T14:34:08;8.50;;;6.20;;
39898;SDS011;25571;47.876;10.642;2024-01-06T14:36:34;9.02;;;6.03;;
39898;SDS011;25571;47.876;10.642;2024-01-06T14:38:59;7.22;;;5.90;;